KACT - Waco Rgnl, TX, US

Issued at 0530 UTC 26 May 2019
Updated at 0906 UTC 26 May 2019
Potential Impact None Slight Moderate High
Time0851Z 26/10Z 26/11Z 26/12Z 26/13Z 26/14Z 26/15Z 26/16Z 26/17Z 26/18Z 26/19Z 26/20Z 26/21Z 26/22Z>>
Type OBS PRVL PRVL PRVL PRVL PRVL PRVL PRVL PRVL PRVL PRVL PRVL PRVL PRVL
VIS 10 >6 >6 >6 >6 >6 >6 >6 >6 >6 >6 >6 >6 >6
CIG 27 15 15 15 15 15 15 -- -- -- -- -- -- --
Cover BKN BKN BKN BKN BKN BKN BKN SCT SCT SCT SCT SCT SCT SCT
FltCat MVFR MVFR MVFR MVFR MVFR MVFR MVFR VFR VFR VFR VFR VFR VFR VFR
WX -RA -- -- -- -- -- -- -- -- -- -- -- -- --
WDir 160 160 160 160 160 160 160 170 170 170 170 170 170 170
WSpd 10 12 12 12 12 12 12 17 17 17 17 17 17 17
WGst -- -- -- -- -- -- -- -- -- -- -- -- -- --
Raw TAF
KACT 260530Z 2606/2706 16013KT P6SM BKN300
  FM260800 16012KT P6SM BKN015
  FM261600 17017KT P6SM SCT040


Raw METAR
KACT 260851Z AUTO 16010KT 10SM -RA FEW019 BKN027 23/21 A3002 RMK AO2 RAE0754B29 SLP157 P0000 60000 T02330206 53002 $
KACT 260751Z AUTO 16012KT 10SM -RA FEW018 23/20 A3001 RMK AO2 SLP154 P0000 T02330200 $
KACT 260651Z AUTO 17012KT 10SM -RA CLR 24/20 A3001 RMK AO2 RAB0554 SLP155 P0000 T02440200 $

METAR Board
Radar Display
Forecast Discussion
For situational awareness. Not to be used for flight planning purposes.